Terminal Aerodrome Forecast
Issued by NWS Atlanta, GA

Home | Current Version | Previous Version | Text Only | Print | Product List | Glossary On
Versions: 1 2 3 4 5 6 7 8 9 10 11 12 13 14 15 16 17 18 19 20
476
FTUS42 KFFC 280805 AAB
TAFMCN
TAF AMD
KMCN 280805Z 2808/0106 00000KT 2SM BR BKN004
      TEMPO 2808/2810 1/2SM FG BKN002
     FM281400 17005KT P6SM BKN012
     FM281800 20009KT P6SM BKN045
     FM010000 19004KT P6SM SCT050 BKN120=

USA.gov is the U.S. government's official web portal to all federal, state and local government web resources and services.